Terminal Aerodrome Forecast
Issued by NWS Jacksonville, FL

Home | Current Version | Previous Version | Text Only | Print | Product List | Glossary On
Versions: 1 2 3 4 5 6 7 8 9 10 11 12 13 14 15
348
FTUS42 KJAX 040537
TAFSSI
TAF
KSSI 040537Z 0406/0506 06012KT P6SM SCT045 BKN100
     FM041400 10012G18KT P6SM BKN040 BKN080
     FM042300 14008KT P6SM SCT035 BKN050=

USA.gov is the U.S. government's official web portal to all federal, state and local government web resources and services.